Time;durP1;ratioP1;P1;durP2;ratioP2;P2;SDS_P1;SDS_P2;PMS_P1;PMS_P2;Temp;Humidity;BMP_temperature;BMP_pressure;BME280_temperature;BME280_humidity;BME280_pressure;Samples;Min_cycle;Max_cycle;Signal;HPM_P1;HPM_P2
2023/03/29 00:01:00;;;;;;;3.42;3.05;;;;;;;7.59;68.51;101436.50;3609838;39;20063;-67
2023/03/29 00:03:27;;;;;;;4.68;2.70;;;;;;;7.57;68.15;101426.78;3610631;39;20282;-67
2023/03/29 00:05:56;;;;;;;4.82;3.03;;;;;;;7.53;68.06;101427.88;3606598;39;20074;-67
2023/03/29 00:08:23;;;;;;;5.28;3.15;;;;;;;7.52;67.76;101429.66;3606918;39;20050;-67
2023/03/29 00:10:50;;;;;;;5.80;2.75;;;;;;;7.55;68.43;101426.88;3603650;39;20316;-67
2023/03/29 00:13:17;;;;;;;4.07;3.17;;;;;;;7.56;68.59;101423.25;3609324;39;20043;-67
2023/03/29 00:15:42;;;;;;;4.18;2.90;;;;;;;7.54;68.74;101416.22;3608987;39;20057;-67
2023/03/29 00:18:08;;;;;;;5.10;2.80;;;;;;;7.56;69.14;101412.56;3606972;39;20058;-67
2023/03/29 00:20:34;;;;;;;3.63;2.80;;;;;;;7.48;69.13;101390.56;3607312;39;20066;-67
2023/03/29 00:23:00;;;;;;;4.32;3.03;;;;;;;7.57;70.04;101410.75;3611681;39;20144;-67
2023/03/29 00:25:25;;;;;;;5.07;2.88;;;;;;;7.57;70.12;101400.03;3606388;39;20046;-67
2023/03/29 00:27:51;;;;;;;5.47;2.78;;;;;;;7.56;69.82;101393.81;3606168;39;20090;-67
2023/03/29 00:30:17;;;;;;;3.20;2.78;;;;;;;7.58;70.03;101402.69;3610208;39;20396;-67
2023/03/29 00:32:43;;;;;;;5.25;2.95;;;;;;;7.58;70.57;101394.66;3610159;39;20062;-67
2023/03/29 00:35:09;;;;;;;4.93;3.05;;;;;;;7.64;69.96;101397.09;3606726;39;20214;-68
2023/03/29 00:37:36;;;;;;;4.43;2.80;;;;;;;7.58;70.32;101385.72;3608259;39;20061;-67
2023/03/29 00:40:09;;;;;;;4.13;2.67;;;;;;;7.62;69.93;101400.75;3606248;39;20063;-67
2023/03/29 00:42:36;;;;;;;3.40;2.60;;;;;;;7.64;69.41;101393.50;3603740;39;20085;-67
2023/03/29 00:45:10;;;;;;;4.60;2.78;;;;;;;7.65;69.98;101404.16;3603471;39;20059;-67
2023/03/29 00:47:48;;;;;;;2.70;2.28;;;;;;;7.61;69.94;101399.88;3605540;39;20369;-67
2023/03/29 00:50:21;;;;;;;3.78;2.53;;;;;;;7.64;70.19;101402.44;3609557;39;20436;-68
2023/03/29 00:52:59;;;;;;;5.53;2.50;;;;;;;7.34;69.82;101351.03;3609010;39;20050;-67
2023/03/29 00:55:34;;;;;;;5.85;2.38;;;;;;;7.64;70.13;101391.72;3608253;39;20634;-67
2023/03/29 00:58:05;;;;;;;3.95;2.38;;;;;;;7.66;69.66;101384.50;3603718;39;20052;-67
2023/03/29 01:00:40;;;;;;;3.95;2.55;;;;;;;7.64;69.73;101374.78;3603306;39;21004;-67
2023/03/29 01:03:13;;;;;;;5.25;2.63;;;;;;;7.64;69.38;101375.69;3604303;39;20087;-67
2023/03/29 01:05:47;;;;;;;7.00;2.40;;;;;;;7.69;69.70;101375.47;3608706;39;20054;-67
2023/03/29 01:08:30;;;;;;;5.03;2.55;;;;;;;7.70;70.19;101374.53;3607060;39;20062;-67
2023/03/29 01:11:15;;;;;;;5.15;2.50;;;;;;;7.75;69.75;101371.69;3608222;39;20498;-67
2023/03/29 01:14:05;;;;;;;3.55;2.45;;;;;;;7.74;69.98;101367.25;3607747;39;20381;-67
2023/03/29 01:16:37;;;;;;;7.13;2.78;;;;;;;7.48;69.84;101318.34;3608546;39;20051;-67
2023/03/29 01:19:07;;;;;;;3.10;2.50;;;;;;;7.77;69.85;101368.00;3607671;39;20324;-67
2023/03/29 01:21:50;;;;;;;3.80;2.65;;;;;;;7.76;70.42;101368.06;3606273;39;20669;-66
2023/03/29 01:24:34;;;;;;;4.85;2.50;;;;;;;7.77;70.42;101365.34;3608451;39;20051;-66
2023/03/29 01:27:31;;;;;;;;;;;;;;;7.74;70.90;101360.09;3606060;39;20063;-66
2023/03/29 01:30:11;;;;;;;5.13;2.63;;;;;;;7.75;71.03;101355.63;3613290;39;19939;-67
2023/03/29 01:32:51;;;;;;;5.22;2.35;;;;;;;7.78;71.52;101353.69;3612620;39;20135;-66
2023/03/29 01:35:49;;;;;;;4.65;2.42;;;;;;;7.83;70.79;101337.41;3610639;39;20047;-67
2023/03/29 01:38:26;;;;;;;5.78;2.50;;;;;;;7.86;71.31;101337.28;3599545;39;20489;-67
2023/03/29 01:40:52;;;;;;;6.35;2.90;;;;;;;7.78;70.82;101324.25;3597371;39;20095;-67
2023/03/29 01:43:50;;;;;;;3.35;2.38;;;;;;;7.80;70.93;101319.72;3607641;39;20070;-67
2023/03/29 01:46:45;;;;;;;4.95;2.40;;;;;;;7.86;70.77;101326.59;3608378;39;20090;-67
2023/03/29 01:49:26;;;;;;;3.13;2.33;;;;;;;7.90;71.70;101325.53;3614487;39;20118;-67
2023/03/29 01:52:08;;;;;;;5.40;2.70;;;;;;;7.92;71.54;101326.31;3608849;39;20055;-68
2023/03/29 01:54:42;;;;;;;3.45;2.60;;;;;;;7.74;71.47;101282.50;3610807;39;20055;-67
2023/03/29 01:57:11;;;;;;;5.47;2.65;;;;;;;7.92;70.96;101310.25;3610211;39;20390;-67
2023/03/29 01:59:43;;;;;;;3.67;2.42;;;;;;;7.97;71.58;101302.91;3609291;39;20053;-67
2023/03/29 02:02:14;;;;;;;5.93;3.40;;;;;;;8.02;72.01;101311.59;3609613;39;20043;-68
2023/03/29 02:04:50;;;;;;;4.22;2.80;;;;;;;8.03;70.77;101307.16;3608750;39;20089;-67
2023/03/29 02:07:25;;;;;;;3.22;2.90;;;;;;;8.03;71.30;101302.66;3610086;39;20083;-68
2023/03/29 02:09:53;;;;;;;6.50;3.13;;;;;;;8.04;71.83;101300.84;3606768;39;20063;-67
2023/03/29 02:12:21;;;;;;;3.13;2.58;;;;;;;8.00;71.42;101292.06;3609573;39;20054;-67
2023/03/29 02:14:46;;;;;;;5.70;2.70;;;;;;;8.05;72.34;101297.22;3607813;39;20615;-67
2023/03/29 02:17:22;;;;;;;4.97;3.25;;;;;;;8.06;71.47;101291.81;3607088;39;20063;-67
2023/03/29 02:20:13;;;;;;;3.75;2.97;;;;;;;8.06;72.06;101286.47;3606505;39;20059;-67
2023/03/29 02:23:13;;;;;;;5.20;2.35;;;;;;;8.07;71.13;101282.84;3606181;39;22134;-67
2023/03/29 02:25:41;;;;;;;4.15;2.25;;;;;;;7.94;70.50;101265.56;3605662;39;20058;-67
2023/03/29 02:28:08;;;;;;;5.03;2.60;;;;;;;8.09;70.48;101286.31;3609150;39;20057;-67
2023/03/29 02:31:08;;;;;;;3.42;2.58;;;;;;;8.12;69.14;101280.84;3609192;39;20056;-67
2023/03/29 02:34:00;;;;;;;4.95;2.10;;;;;;;8.13;68.49;101271.84;3608216;39;20306;-67
2023/03/29 02:36:45;;;;;;;3.75;2.88;;;;;;;8.19;68.92;101275.22;3607695;39;20055;-67
2023/03/29 02:39:15;;;;;;;4.32;2.72;;;;;;;8.21;69.06;101270.63;3608117;39;20048;-67
2023/03/29 02:41:48;;;;;;;3.33;2.60;;;;;;;8.24;68.56;101274.03;3607926;39;20054;-67
2023/03/29 02:44:21;;;;;;;7.97;2.80;;;;;;;8.26;68.65;101265.94;3610706;39;20120;-67
2023/03/29 02:46:55;;;;;;;4.15;2.55;;;;;;;8.30;67.29;101270.22;3607910;39;20084;-66
2023/03/29 02:49:21;;;;;;;2.42;2.20;;;;;;;8.31;67.08;101263.94;3611160;39;20058;-68
2023/03/29 02:51:54;;;;;;;5.13;2.28;;;;;;;8.32;67.55;101254.97;3606463;39;20055;-66
2023/03/29 02:54:28;;;;;;;3.15;2.20;;;;;;;8.34;67.56;101253.06;3608816;39;20057;-67
2023/03/29 02:57:05;;;;;;;3.08;1.90;;;;;;;8.33;67.14;101254.88;3610441;39;20310;-67
2023/03/29 02:59:32;;;;;;;5.07;2.17;;;;;;;8.35;66.49;101252.13;3611057;39;20312;-66
2023/03/29 03:01:58;;;;;;;4.07;2.00;;;;;;;8.37;66.71;101247.56;3602987;39;20067;-66
2023/03/29 03:04:24;;;;;;;3.20;2.20;;;;;;;8.32;66.76;101233.53;3609374;39;20054;-68
2023/03/29 03:06:50;;;;;;;5.03;2.30;;;;;;;8.40;66.83;101243.91;3611275;39;20309;-67
2023/03/29 03:09:17;;;;;;;6.40;2.00;;;;;;;8.41;66.88;101243.84;3610028;39;20067;-66
2023/03/29 03:11:42;;;;;;;4.00;1.98;;;;;;;8.34;65.99;101240.56;3607920;39;20131;-66
2023/03/29 03:14:08;;;;;;;3.75;2.30;;;;;;;8.42;65.97;101250.09;3608107;39;20325;-67
2023/03/29 03:16:34;;;;;;;3.25;2.08;;;;;;;8.43;66.38;101247.31;3598398;39;20060;-66
2023/03/29 03:19:00;;;;;;;4.35;2.00;;;;;;;8.42;66.81;101245.59;3608528;39;20135;-66
2023/03/29 03:21:29;;;;;;;4.38;2.15;;;;;;;8.40;66.14;101230.53;3610122;39;20055;-67
2023/03/29 03:23:55;;;;;;;3.85;2.25;;;;;;;8.45;66.43;101233.88;3607962;39;20050;-66
2023/03/29 03:26:23;;;;;;;5.32;2.17;;;;;;;8.45;66.25;101228.50;3606109;39;20104;-67
2023/03/29 03:28:50;;;;;;;4.80;2.42;;;;;;;8.22;66.09;101190.25;3606684;39;20054;-67
2023/03/29 03:31:16;;;;;;;2.67;1.92;;;;;;;8.46;65.81;101225.75;3611682;39;20082;-67
2023/03/29 03:33:42;;;;;;;4.00;2.10;;;;;;;8.46;65.68;101223.06;3611315;39;20485;-66
2023/03/29 03:36:09;;;;;;;4.63;2.30;;;;;;;8.46;65.77;101225.75;3613069;39;20054;-66
2023/03/29 03:38:37;;;;;;;5.18;2.28;;;;;;;8.20;65.67;101196.59;3610620;39;20076;-66
2023/03/29 03:41:05;;;;;;;3.20;2.20;;;;;;;8.46;65.70;101235.59;3606095;39;20418;-66
2023/03/29 03:43:32;;;;;;;5.35;2.25;;;;;;;8.47;64.88;101226.59;3606195;39;20074;-66
2023/03/29 03:45:58;;;;;;;2.72;1.95;;;;;;;8.48;65.78;101234.59;3607407;39;20107;-67
2023/03/29 03:48:24;;;;;;;3.17;2.05;;;;;;;8.50;64.81;101229.16;3605744;39;20059;-67
2023/03/29 03:50:56;;;;;;;2.30;2.10;;;;;;;8.48;65.43;101229.22;3607676;39;20682;-66
2023/03/29 03:53:25;;;;;;;3.50;1.98;;;;;;;8.52;65.55;101241.53;3608735;39;20058;-66
2023/03/29 03:55:54;;;;;;;3.28;2.10;;;;;;;8.54;64.80;101228.09;3608710;39;20070;-67
2023/03/29 03:58:21;;;;;;;4.60;2.10;;;;;;;8.51;64.97;101234.44;3605390;39;20515;-67
2023/03/29 04:00:49;;;;;;;5.05;2.50;;;;;;;8.55;65.68;101224.44;3606119;39;20082;-66
2023/03/29 04:03:16;;;;;;;3.20;1.92;;;;;;;8.55;64.80;101221.78;3609266;39;20066;-67
2023/03/29 04:05:45;;;;;;;3.83;1.80;;;;;;;8.56;65.79;101221.72;3611868;39;20039;-66
2023/03/29 04:08:13;;;;;;;5.63;2.72;;;;;;;8.54;65.65;101212.88;3608070;39;20116;-67
2023/03/29 04:10:39;;;;;;;4.57;2.38;;;;;;;8.55;65.01;101222.63;3610647;39;20057;-67
2023/03/29 04:13:06;;;;;;;5.45;2.47;;;;;;;8.40;65.40;101183.16;3607021;39;20133;-66
2023/03/29 04:15:40;;;;;;;3.67;2.45;;;;;;;8.51;65.28;101202.28;3607896;39;20059;-66
2023/03/29 04:18:06;;;;;;;;;;;;;;;8.53;64.63;101215.59;3610051;39;20147;-66
2023/03/29 04:20:32;;;;;;;4.28;2.33;;;;;;;8.54;64.91;101209.31;3607772;39;19938;-66
2023/03/29 04:22:57;;;;;;;4.47;2.40;;;;;;;8.53;65.33;101199.53;3610783;39;20051;-66
2023/03/29 04:25:24;;;;;;;4.75;2.30;;;;;;;8.57;65.53;101203.81;3609825;39;20219;-67
2023/03/29 04:27:50;;;;;;;5.20;2.50;;;;;;;8.57;65.46;101211.88;3606780;39;20116;-67
2023/03/29 04:30:15;;;;;;;3.05;2.30;;;;;;;8.56;64.76;101200.28;3609702;39;20054;-67
2023/03/29 04:32:41;;;;;;;6.28;2.58;;;;;;;8.57;64.98;101202.00;3606582;39;20050;-67
2023/03/29 04:35:08;;;;;;;3.85;2.50;;;;;;;8.62;64.94;101204.44;3606884;39;20050;-67
2023/03/29 04:37:34;;;;;;;4.05;2.63;;;;;;;8.64;65.78;101197.22;3605119;39;20115;-67
2023/03/29 04:40:00;;;;;;;6.00;2.50;;;;;;;8.45;65.12;101165.06;3610634;39;20059;-67
2023/03/29 04:42:26;;;;;;;5.10;2.60;;;;;;;8.64;64.54;101199.03;3610165;39;20086;-66
2023/03/29 04:44:53;;;;;;;5.28;2.50;;;;;;;8.70;65.35;101209.47;3609441;39;20059;-65
2023/03/29 04:47:20;;;;;;;6.85;2.65;;;;;;;8.69;65.10;101207.72;3609865;39;20116;-67
2023/03/29 04:49:46;;;;;;;5.38;2.50;;;;;;;8.70;65.04;101202.28;3609953;39;20055;-66
2023/03/29 04:52:13;;;;;;;6.60;2.65;;;;;;;8.53;65.26;101170.94;3605043;39;20085;-66
2023/03/29 04:54:39;;;;;;;5.15;2.55;;;;;;;8.71;65.11;101197.78;3607247;39;20456;-65
2023/03/29 04:57:07;;;;;;;6.03;2.70;;;;;;;8.73;64.83;101190.56;3610110;39;20138;-66
2023/03/29 04:59:33;;;;;;;4.07;2.88;;;;;;;8.77;65.67;101192.13;3613370;39;20111;-68
2023/03/29 05:02:01;;;;;;;4.07;2.60;;;;;;;8.71;65.61;101176.34;3613779;39;20094;-66
2023/03/29 05:04:27;;;;;;;3.42;2.58;;;;;;;8.47;65.17;101135.53;3615273;39;20050;-67
2023/03/29 05:06:54;;;;;;;4.45;2.85;;;;;;;8.66;64.48;101167.66;3609261;39;20126;-67
2023/03/29 05:09:21;;;;;;;5.10;2.95;;;;;;;8.84;64.86;101186.38;3609244;39;20123;-67
2023/03/29 05:11:47;;;;;;;6.60;2.80;;;;;;;8.83;65.18;101176.63;3609564;39;20057;-66
2023/03/29 05:14:13;;;;;;;5.10;2.20;;;;;;;8.88;65.04;101179.09;3614671;39;20281;-66
2023/03/29 05:16:41;;;;;;;5.35;2.45;;;;;;;8.90;64.95;101184.38;3609790;39;20062;-66
2023/03/29 05:19:10;;;;;;;6.93;2.78;;;;;;;8.86;65.53;101175.59;3612088;39;20078;-66
2023/03/29 05:21:36;;;;;;;5.00;2.85;;;;;;;8.93;65.05;101186.91;3607962;39;20063;-66
2023/03/29 05:24:03;;;;;;;5.10;2.70;;;;;;;8.92;64.35;101180.69;3610580;39;20054;-67
2023/03/29 05:26:29;;;;;;;5.57;2.63;;;;;;;8.93;64.51;101181.53;3610907;39;20047;-66
2023/03/29 05:28:55;;;;;;;4.22;2.40;;;;;;;8.91;64.22;101168.22;3609882;39;20343;-67
2023/03/29 05:31:22;;;;;;;6.90;3.17;;;;;;;8.91;64.73;101184.31;3593681;39;20053;-67
2023/03/29 05:33:49;;;;;;;4.13;2.40;;;;;;;8.97;64.31;101189.34;3610275;39;20069;-66
2023/03/29 05:36:18;;;;;;;5.25;3.13;;;;;;;9.00;65.34;101196.38;3607669;39;20095;-68
2023/03/29 05:38:45;;;;;;;8.57;3.55;;;;;;;8.99;64.96;101191.97;3612276;39;20300;-67
2023/03/29 05:41:11;;;;;;;3.65;2.78;;;;;;;8.90;64.57;101170.97;3607627;39;20046;-67
2023/03/29 05:43:37;;;;;;;6.07;2.78;;;;;;;9.05;65.06;101197.88;3610732;39;20070;-67
2023/03/29 05:46:04;;;;;;;7.63;3.70;;;;;;;9.14;65.43;101209.97;3609248;39;20121;-67
2023/03/29 05:48:31;;;;;;;5.40;3.25;;;;;;;9.18;64.89;101202.63;3608860;39;20259;-67
2023/03/29 05:50:57;;;;;;;3.78;2.70;;;;;;;9.17;65.08;101198.22;3608491;39;20086;-67
2023/03/29 05:53:26;;;;;;;5.07;2.90;;;;;;;9.09;64.75;101187.88;3607557;39;20065;-68
2023/03/29 05:55:52;;;;;;;6.20;3.35;;;;;;;9.22;65.10;101206.91;3608473;39;20069;-68
2023/03/29 05:58:19;;;;;;;5.10;3.08;;;;;;;9.22;64.71;101204.22;3607432;39;20058;-68
2023/03/29 06:00:48;;;;;;;5.95;3.15;;;;;;;9.26;64.45;101206.69;3600610;39;20039;-68
2023/03/29 06:03:22;;;;;;;6.03;3.38;;;;;;;9.29;64.37;101206.53;3611068;39;20122;-68
2023/03/29 06:05:58;;;;;;;4.75;3.17;;;;;;;9.32;64.40;101202.81;3611335;39;20047;-68
2023/03/29 06:08:25;;;;;;;6.88;3.00;;;;;;;9.35;64.48;101204.47;3605537;39;20187;-67
2023/03/29 06:11:00;;;;;;;4.65;2.90;;;;;;;9.35;64.48;101199.97;3608919;39;20366;-68
2023/03/29 06:13:28;;;;;;;5.18;3.03;;;;;;;9.39;65.03;101206.94;3606772;39;20067;-68
2023/03/29 06:15:53;;;;;;;4.40;3.10;;;;;;;9.42;65.35;101206.78;3607047;39;20063;-68
2023/03/29 06:18:19;;;;;;;3.92;2.70;;;;;;;9.36;65.06;101187.44;3609279;39;20073;-68
2023/03/29 06:20:52;;;;;;;7.55;3.05;;;;;;;9.48;64.74;101211.84;3612605;39;20054;-68
2023/03/29 06:23:20;;;;;;;5.23;3.47;;;;;;;9.52;64.71;101218.78;3604938;39;20436;-68
2023/03/29 06:25:47;;;;;;;6.13;3.90;;;;;;;9.39;65.48;101185.47;3608862;39;20070;-68
2023/03/29 06:28:14;;;;;;;9.80;3.50;;;;;;;8.89;64.90;101089.66;3609112;39;20396;-68
2023/03/29 06:30:40;;;;;;;6.72;3.30;;;;;;;9.60;64.75;101204.94;3607904;39;20050;-68
2023/03/29 06:33:07;;;;;;;7.70;2.95;;;;;;;9.64;65.55;101211.91;3606041;39;20058;-68
2023/03/29 06:35:35;;;;;;;7.00;3.33;;;;;;;9.68;65.33;101207.25;3601945;39;20375;-68
2023/03/29 06:38:02;;;;;;;6.95;3.30;;;;;;;9.67;64.92;101206.38;3608237;39;20295;-68
2023/03/29 06:40:29;;;;;;;5.07;3.03;;;;;;;9.62;65.70;101188.78;3610957;39;20120;-68
2023/03/29 06:42:59;;;;;;;5.60;3.53;;;;;;;9.67;65.37;101192.97;3611811;39;20127;-68
2023/03/29 06:45:32;;;;;;;6.72;3.53;;;;;;;9.74;65.54;101199.75;3609201;39;20370;-68
2023/03/29 06:47:58;;;;;;;5.75;3.53;;;;;;;9.58;65.57;101157.66;3608098;39;20312;-67
2023/03/29 06:50:24;;;;;;;6.80;3.72;;;;;;;9.92;65.95;101200.56;3606830;39;20059;-68
2023/03/29 06:52:51;;;;;;;7.57;3.35;;;;;;;9.97;65.67;101198.53;3607895;39;20051;-68
2023/03/29 06:55:17;;;;;;;10.20;3.80;;;;;;;10.04;64.75;101198.19;3608156;39;21366;-70
2023/03/29 06:57:43;;;;;;;9.82;3.72;;;;;;;10.09;65.18;101201.50;3609139;39;20128;-69
2023/03/29 07:00:18;;;;;;;9.25;3.38;;;;;;;10.15;65.02;101201.19;3597077;39;20039;-68
2023/03/29 07:02:48;;;;;;;5.32;3.35;;;;;;;9.92;65.29;101162.97;3612307;39;20047;-69
2023/03/29 07:05:15;;;;;;;5.72;3.33;;;;;;;10.20;64.55;101201.78;3607091;39;20106;-69
2023/03/29 07:07:58;;;;;;;6.75;3.45;;;;;;;10.26;65.22;101209.53;3606659;39;20397;-69
2023/03/29 07:10:32;;;;;;;4.57;3.33;;;;;;;10.34;65.24;101217.19;3606709;39;20405;-69
2023/03/29 07:13:02;;;;;;;;;;;;;;;10.35;65.09;101219.78;3596912;39;20306;-69
2023/03/29 07:15:28;;;;;;;6.45;3.45;;;;;;;10.38;64.85;101214.25;3610478;39;19970;-69
2023/03/29 07:17:54;;;;;;;6.00;3.88;;;;;;;10.40;64.77;101211.47;3608024;39;20055;-69
2023/03/29 07:20:21;;;;;;;7.20;3.55;;;;;;;10.42;64.66;101210.44;3608440;39;20042;-68
2023/03/29 07:22:49;;;;;;;5.57;3.45;;;;;;;10.44;64.62;101224.66;3612418;39;20116;-68
2023/03/29 07:25:17;;;;;;;24.05;9.98;;;;;;;10.50;65.27;101223.47;3609530;39;20052;-68
2023/03/29 07:27:45;;;;;;;6.03;3.80;;;;;;;10.20;65.73;101172.22;3608471;39;20141;-69
2023/03/29 07:30:15;;;;;;;8.45;4.70;;;;;;;10.58;65.54;101228.41;3609304;39;20055;-70
2023/03/29 07:32:44;;;;;;;5.00;3.78;;;;;;;10.33;64.77;101185.88;3607077;39;20065;-68
2023/03/29 07:35:12;;;;;;;22.95;15.52;;;;;;;10.64;65.47;101230.75;3608990;39;20047;-68
2023/03/29 07:37:41;;;;;;;6.45;3.47;;;;;;;10.70;65.27;101233.09;3610488;39;20066;-68
2023/03/29 07:40:15;;;;;;;8.40;3.53;;;;;;;10.73;65.27;101240.16;3597912;39;20066;-68
2023/03/29 07:42:54;;;;;;;6.75;3.58;;;;;;;10.76;65.36;101245.34;3605096;39;20425;-68
2023/03/29 07:45:27;;;;;;;5.30;3.30;;;;;;;10.80;65.08;101250.47;3605867;39;20414;-69
2023/03/29 07:47:58;;;;;;;5.20;3.33;;;;;;;10.79;65.03;101256.78;3608159;39;20077;-69
2023/03/29 07:50:25;;;;;;;5.35;3.50;;;;;;;10.78;65.99;101246.97;3605726;39;20341;-70
2023/03/29 07:52:51;;;;;;;5.93;3.75;;;;;;;10.50;65.30;101201.06;3607023;39;20182;-69
2023/03/29 07:55:17;;;;;;;7.32;3.72;;;;;;;10.77;66.59;101247.94;3608518;39;20690;-69
2023/03/29 07:57:43;;;;;;;4.97;3.58;;;;;;;10.73;66.79;101246.38;3608280;39;20047;-69
2023/03/29 08:00:14;;;;;;;5.25;3.45;;;;;;;10.74;68.00;101250.78;3609717;39;20047;-68
2023/03/29 08:02:46;;;;;;;5.97;3.63;;;;;;;10.71;68.54;101252.78;3608648;39;20095;-68
2023/03/29 08:05:14;;;;;;;6.65;4.00;;;;;;;10.69;70.20;101244.81;3609930;39;20054;-68
2023/03/29 08:07:43;;;;;;;6.95;3.75;;;;;;;10.69;69.79;101250.22;3608070;39;20108;-68
2023/03/29 08:10:19;;;;;;;8.85;4.15;;;;;;;10.69;71.32;101239.44;3607182;39;20467;-68
2023/03/29 08:12:47;;;;;;;8.50;4.35;;;;;;;10.68;71.16;101237.69;3608411;39;20070;-68
2023/03/29 08:15:15;;;;;;;7.32;4.53;;;;;;;10.67;72.26;101235.97;3606842;39;20051;-68
2023/03/29 08:17:41;;;;;;;5.30;4.18;;;;;;;10.66;72.21;101245.00;3606607;39;20094;-68
2023/03/29 08:20:12;;;;;;;9.10;4.55;;;;;;;10.66;72.39;101255.75;3609040;39;20058;-67
2023/03/29 08:22:39;;;;;;;12.70;6.70;;;;;;;10.69;72.56;101247.50;3607384;39;20091;-68
2023/03/29 08:25:06;;;;;;;7.90;4.65;;;;;;;10.72;72.23;101239.28;3608272;39;20062;-67
2023/03/29 08:27:33;;;;;;;9.48;5.20;;;;;;;10.76;72.47;101230.06;3607418;39;20087;-67
2023/03/29 08:29:59;;;;;;;7.07;4.50;;;;;;;10.82;72.60;101235.13;3609109;39;20438;-67
2023/03/29 08:32:25;;;;;;;8.50;4.70;;;;;;;10.85;71.96;101224.19;3608622;39;20136;-67
2023/03/29 08:34:50;;;;;;;8.18;4.93;;;;;;;10.88;71.67;101226.69;3610718;39;20381;-68
2023/03/29 08:37:16;;;;;;;8.38;4.57;;;;;;;10.93;72.44;101227.28;3609058;39;20082;-69
2023/03/29 08:39:42;;;;;;;9.65;4.63;;;;;;;10.96;71.87;101220.88;3612875;39;20087;-68
2023/03/29 08:42:23;;;;;;;9.82;4.60;;;;;;;11.04;71.84;101224.00;3608897;39;20393;-68
2023/03/29 08:45:24;;;;;;;8.73;4.80;;;;;;;11.17;72.66;101226.84;3607098;39;20438;-68
2023/03/29 08:48:13;;;;;;;9.52;4.50;;;;;;;11.23;72.05;101223.81;3606599;39;20063;-68
2023/03/29 08:50:48;;;;;;;9.13;5.13;;;;;;;11.25;72.55;101237.16;3607649;39;20099;-68
2023/03/29 08:53:34;;;;;;;10.23;4.88;;;;;;;11.27;73.25;101222.66;3608310;39;20061;-67
2023/03/29 08:56:14;;;;;;;27.60;22.38;;;;;;;11.35;72.66;101223.09;3611061;39;20137;-68
2023/03/29 08:58:42;;;;;;;137.93;103.20;;;;;;;11.39;72.53;101219.25;3609472;39;20405;-68
2023/03/29 09:01:10;;;;;;;11.07;5.28;;;;;;;11.37;71.96;101218.47;3608084;39;20054;-67
2023/03/29 09:03:45;;;;;;;7.15;4.80;;;;;;;11.39;71.53;101219.25;3611649;39;20054;-69
2023/03/29 09:06:12;;;;;;;8.93;4.75;;;;;;;11.41;71.86;101227.22;3610595;39;20063;-67
2023/03/29 09:08:48;;;;;;;12.80;5.50;;;;;;;11.43;71.97;101224.47;3605141;39;20093;-68
2023/03/29 09:11:22;;;;;;;11.25;5.20;;;;;;;11.50;71.92;101228.50;3609696;39;20058;-67
2023/03/29 09:14:21;;;;;;;9.63;4.43;;;;;;;11.53;71.19;101212.19;3597275;39;20445;-67
2023/03/29 09:17:09;;;;;;;7.10;4.78;;;;;;;11.69;71.82;101222.91;3606365;39;20305;-67
2023/03/29 09:20:13;;;;;;;8.65;4.78;;;;;;;11.69;70.71;101230.97;3609364;39;20051;-67
2023/03/29 09:23:04;;;;;;;8.15;4.47;;;;;;;11.65;72.02;101222.22;3600613;39;20067;-68
2023/03/29 09:25:49;;;;;;;30.40;18.10;;;;;;;11.68;72.43;101216.66;3600370;39;20059;-67
2023/03/29 09:28:34;;;;;;;9.68;5.22;;;;;;;11.70;71.34;101224.63;3605545;39;20054;-67
2023/03/29 09:31:19;;;;;;;6.95;5.00;;;;;;;11.71;71.77;101223.69;3608863;39;20343;-67
2023/03/29 09:33:56;;;;;;;9.80;5.93;;;;;;;11.82;71.94;101232.84;3607081;39;20111;-67
2023/03/29 09:36:51;;;;;;;8.38;4.38;;;;;;;11.89;72.60;101238.75;3609376;39;20419;-67
2023/03/29 09:39:20;;;;;;;9.60;5.28;;;;;;;11.90;72.46;101234.25;3611599;39;20053;-67
2023/03/29 09:41:58;;;;;;;7.05;4.72;;;;;;;11.85;73.89;101226.44;3611991;39;20050;-67
2023/03/29 09:44:46;;;;;;;9.82;5.07;;;;;;;11.85;74.16;101235.38;3607472;39;20055;-68
2023/03/29 09:47:39;;;;;;;9.52;5.30;;;;;;;11.85;74.74;101229.97;3603444;39;21492;-67
2023/03/29 09:50:29;;;;;;;8.93;4.63;;;;;;;11.80;75.83;101207.84;3607679;39;20083;-67
2023/03/29 09:52:55;;;;;;;9.07;5.20;;;;;;;11.81;75.60;101217.63;3607320;39;20128;-67
2023/03/29 09:55:29;;;;;;;7.50;4.90;;;;;;;11.81;75.95;101225.72;3607978;39;20063;-67
2023/03/29 09:58:01;;;;;;;7.75;4.88;;;;;;;11.76;76.97;101235.88;3610574;39;20342;-66
2023/03/29 10:00:27;;;;;;;9.30;5.15;;;;;;;11.74;76.73;101235.13;3608512;39;20382;-66
2023/03/29 10:02:57;;;;;;;8.10;5.72;;;;;;;11.63;77.66;101207.97;3613383;39;20083;-67
2023/03/29 10:05:28;;;;;;;7.32;5.40;;;;;;;11.71;78.01;101218.31;3614469;39;20065;-67
2023/03/29 10:08:00;;;;;;;8.82;5.40;;;;;;;11.81;77.53;101225.72;3608829;39;20050;-67
2023/03/29 10:10:34;;;;;;;9.27;5.43;;;;;;;11.77;76.42;101221.47;3607407;39;20109;-67
2023/03/29 10:13:20;;;;;;;8.73;5.60;;;;;;;11.87;76.67;101229.91;3608156;39;20305;-67
2023/03/29 10:16:18;;;;;;;8.13;5.32;;;;;;;11.87;76.89;101231.75;3606609;39;20048;-67
2023/03/29 10:18:44;;;;;;;9.45;6.30;;;;;;;11.99;77.70;101222.91;3608466;39;20079;-67
2023/03/29 10:21:19;;;;;;;11.77;5.68;;;;;;;12.13;76.78;101231.00;3609988;39;20059;-68
2023/03/29 10:23:46;;;;;;;13.98;5.55;;;;;;;12.15;76.03;101217.44;3610150;39;20378;-67
2023/03/29 10:26:31;;;;;;;8.23;5.28;;;;;;;12.13;75.97;101192.41;3610242;39;20057;-67
2023/03/29 10:29:01;;;;;;;10.77;5.60;;;;;;;12.24;76.83;101188.09;3609142;39;20054;-66
2023/03/29 10:31:32;;;;;;;9.95;5.15;;;;;;;12.42;75.99;101201.34;3606093;39;20047;-66
2023/03/29 10:34:05;;;;;;;6.90;5.00;;;;;;;12.72;75.76;101194.00;3607071;39;20066;-67
2023/03/29 10:36:31;;;;;;;8.98;5.00;;;;;;;12.99;75.66;101185.03;3611374;39;20081;-67
2023/03/29 10:39:02;;;;;;;39.88;23.05;;;;;;;13.15;73.43;101185.75;3602132;39;20584;-66
2023/03/29 10:41:33;;;;;;;9.27;7.60;;;;;;;13.23;71.65;101188.81;3606965;39;20062;-67
2023/03/29 10:44:00;;;;;;;8.38;5.30;;;;;;;13.27;70.91;101196.75;3607296;39;20154;-68
2023/03/29 10:46:39;;;;;;;8.10;4.97;;;;;;;13.37;71.29;101181.63;3608647;39;20043;-67
2023/03/29 10:49:17;;;;;;;7.53;4.07;;;;;;;13.54;69.98;101169.69;3609827;39;20168;-67
2023/03/29 10:51:46;;;;;;;6.78;4.30;;;;;;;13.95;69.57;101174.91;3607856;39;20136;-67
2023/03/29 10:54:19;;;;;;;6.75;4.32;;;;;;;14.29;67.59;101170.66;3605197;39;20075;-67
2023/03/29 10:56:55;;;;;;;8.02;4.40;;;;;;;14.75;66.49;101163.78;3608005;39;20082;-67
2023/03/29 10:59:37;;;;;;;12.63;6.65;;;;;;;14.86;63.98;101142.19;3607132;39;20489;-68
2023/03/29 11:02:34;;;;;;;12.85;6.32;;;;;;;15.18;64.25;101160.56;3607141;39;20528;-67
2023/03/29 11:05:26;;;;;;;6.80;4.45;;;;;;;15.29;63.13;101149.78;3609148;39;20066;-67
2023/03/29 11:08:05;;;;;;;6.38;4.10;;;;;;;15.58;62.43;101149.38;3614800;39;20107;-68
2023/03/29 11:11:15;;;;;;;6.13;4.18;;;;;;;15.79;61.67;101145.00;3611566;39;20059;-68
2023/03/29 11:14:12;;;;;;;6.65;4.28;;;;;;;16.09;61.11;101149.00;3609986;39;20051;-68
2023/03/29 11:17:33;;;;;;;7.20;4.43;;;;;;;16.35;58.83;101145.03;3605232;39;20418;-68
2023/03/29 11:20:16;;;;;;;6.57;3.95;;;;;;;16.51;58.57;101138.38;3601944;39;20051;-68
2023/03/29 11:23:00;;;;;;;7.60;3.97;;;;;;;16.62;58.47;101138.38;3607606;39;20065;-68
2023/03/29 11:25:52;;;;;;;7.28;4.20;;;;;;;16.57;57.68;101140.59;3608029;39;20055;-67
2023/03/29 11:28:28;;;;;;;6.10;4.25;;;;;;;16.72;57.51;101155.59;3607414;39;20051;-67
2023/03/29 11:31:12;;;;;;;5.07;3.85;;;;;;;16.54;56.95;101154.41;3607043;39;20873;-65
2023/03/29 11:34:17;;;;;;;7.57;4.35;;;;;;;16.40;57.55;101156.41;3609373;39;20083;-66
2023/03/29 11:36:49;;;;;;;4.70;3.97;;;;;;;16.34;58.37;101148.75;3607861;39;20285;-69
2023/03/29 11:39:55;;;;;;;8.73;4.60;;;;;;;16.47;57.63;101149.47;3607379;39;20083;-67
2023/03/29 11:42:31;;;;;;;5.88;3.90;;;;;;;16.61;59.39;101128.47;3608223;39;20047;-66
2023/03/29 11:45:01;;;;;;;8.00;4.60;;;;;;;17.12;57.18;101149.59;3611737;39;20378;-66
2023/03/29 11:47:36;;;;;;;5.47;4.60;;;;;;;17.35;56.64;101124.06;3600171;39;20136;-67
2023/03/29 11:50:21;;;;;;;12.32;8.55;;;;;;;17.94;54.56;101147.06;3608665;39;20054;-67
2023/03/29 11:53:05;;;;;;;7.90;4.03;;;;;;;18.00;53.77;101141.09;3608027;39;20160;-66
2023/03/29 11:55:37;;;;;;;6.93;4.05;;;;;;;17.98;53.77;101140.38;3608797;39;20050;-67